Time;durP1;ratioP1;P1;durP2;ratioP2;P2;SDS_P1;SDS_P2;PMS_P1;PMS_P2;Temp;Humidity;BMP_temperature;BMP_pressure;BME280_temperature;BME280_humidity;BME280_pressure;Samples;Min_cycle;Max_cycle;Signal;HPM_P1;HPM_P2
2022/10/19 00:06:04;;;;;;;3.3;6.9;;;;;;;14.2;87;99530;;;;
2022/10/19 00:17:04;;;;;;;3.3;6.9;;;;;;;13.9;87.2;99530;;;;
2022/10/19 00:28:04;;;;;;;5;6.5;;;;;;;13.9;87.4;99530;;;;
2022/10/19 00:39:04;;;;;;;5;6.5;;;;;;;13.7;87.4;99530;;;;
2022/10/19 00:49:04;;;;;;;5;6.5;;;;;;;13.7;87.2;99530;;;;
2022/10/19 01:00:04;;;;;;;4.6;7.4;;;;;;;13.6;86.7;99520;;;;
2022/10/19 01:11:04;;;;;;;4.6;7.4;;;;;;;13.7;86.6;99510;;;;
2022/10/19 01:22:04;;;;;;;4.5;6.9;;;;;;;13.7;86.3;99490;;;;
2022/10/19 01:32:04;;;;;;;4.5;6.9;;;;;;;13.6;86.5;99490;;;;
2022/10/19 01:43:04;;;;;;;4.5;6.9;;;;;;;13.5;86.9;99470;;;;
2022/10/19 01:53:04;;;;;;;5.2;7.5;;;;;;;13.4;87.3;99460;;;;
2022/10/19 02:03:04;;;;;;;5.2;7.5;;;;;;;13.4;87.2;99480;;;;
2022/10/19 02:13:04;;;;;;;5.2;7.5;;;;;;;13.5;86.9;99480;;;;
2022/10/19 02:24:04;;;;;;;4.6;7.5;;;;;;;13.6;86.6;99470;;;;
2022/10/19 02:34:04;;;;;;;4.6;7.5;;;;;;;13.6;86.8;99470;;;;
2022/10/19 02:44:04;;;;;;;4.6;7.5;;;;;;;13.5;87.5;99450;;;;
2022/10/19 02:55:04;;;;;;;6.1;8.9;;;;;;;13.5;88;99450;;;;
2022/10/19 03:05:04;;;;;;;6.1;8.9;;;;;;;13.4;88.3;99440;;;;
2022/10/19 03:16:04;;;;;;;6.1;8.9;;;;;;;13.4;88.5;99450;;;;
2022/10/19 03:26:04;;;;;;;10;15.2;;;;;;;13.4;88.7;99450;;;;
2022/10/19 03:36:04;;;;;;;10;15.2;;;;;;;13.4;88.9;99450;;;;
2022/10/19 03:46:04;;;;;;;10;15.2;;;;;;;13.4;89.1;99440;;;;
2022/10/19 03:56:04;;;;;;;10.9;15.4;;;;;;;13.2;89.5;99440;;;;
2022/10/19 04:07:04;;;;;;;10.9;15.4;;;;;;;13.1;89.7;99430;;;;
2022/10/19 04:18:04;;;;;;;10.9;15.4;;;;;;;13;89.5;99420;;;;
2022/10/19 04:28:04;;;;;;;12.5;15.4;;;;;;;13;89.5;99430;;;;
2022/10/19 04:38:04;;;;;;;12.5;15.4;;;;;;;13;90.2;99430;;;;
2022/10/19 04:49:05;;;;;;;12.5;15.4;;;;;;;13;90.1;99430;;;;
2022/10/19 04:59:04;;;;;;;14.5;19.7;;;;;;;13;90;99420;;;;
2022/10/19 05:09:04;;;;;;;14.5;19.7;;;;;;;13;89.5;99420;;;;
2022/10/19 05:19:04;;;;;;;14.5;19.7;;;;;;;13;89.2;99430;;;;
2022/10/19 05:30:05;;;;;;;14.3;18.9;;;;;;;13;88.8;99430;;;;
2022/10/19 05:40:04;;;;;;;14.3;18.9;;;;;;;12.6;87.8;99420;;;;
2022/10/19 05:51:04;;;;;;;14.3;18.9;;;;;;;12.4;88.1;99430;;;;
2022/10/19 06:01:04;;;;;;;11;19.1;;;;;;;12.2;87.9;99440;;;;
2022/10/19 06:12:04;;;;;;;11;19.1;;;;;;;12.3;88.1;99460;;;;
2022/10/19 06:22:04;;;;;;;8.9;11.3;;;;;;;12.2;87.1;99480;;;;
2022/10/19 06:33:04;;;;;;;8.9;11.3;;;;;;;12;86.8;99470;;;;
2022/10/19 06:44:04;;;;;;;8.9;11.3;;;;;;;12;87.1;99480;;;;
2022/10/19 06:55:04;;;;;;;10;12.9;;;;;;;12.1;87.3;99480;;;;
2022/10/19 07:06:04;;;;;;;10;12.9;;;;;;;12.5;87.8;99490;;;;
2022/10/19 07:16:05;;;;;;;10;12.9;;;;;;;12.9;86;99490;;;;
2022/10/19 07:27:04;;;;;;;16.4;20.5;;;;;;;13.3;84.5;99500;;;;
2022/10/19 07:37:04;;;;;;;16.4;20.5;;;;;;;13.3;83.2;99500;;;;
2022/10/19 07:47:05;;;;;;;16.4;20.5;;;;;;;13.2;82.9;99520;;;;
2022/10/19 07:57:04;;;;;;;11.8;15.8;;;;;;;13.1;83.1;99510;;;;
2022/10/19 08:07:04;;;;;;;11.8;15.8;;;;;;;13.3;83;99500;;;;
2022/10/19 08:17:04;;;;;;;11.8;15.8;;;;;;;13.2;82.3;99500;;;;
2022/10/19 08:28:04;;;;;;;14.3;18;;;;;;;13.4;81.7;99490;;;;
2022/10/19 08:39:04;;;;;;;14.3;18;;;;;;;13.5;81.1;99500;;;;
2022/10/19 08:49:04;;;;;;;14.3;18;;;;;;;13.5;79.4;99500;;;;
2022/10/19 09:00:04;;;;;;;12.8;17;;;;;;;13.3;75.8;99500;;;;
2022/10/19 09:10:04;;;;;;;12.8;17;;;;;;;13.2;76.2;99490;;;;
2022/10/19 09:21:04;;;;;;;8.4;12.1;;;;;;;13;76;99500;;;;
2022/10/19 09:32:04;;;;;;;8.4;12.1;;;;;;;12.8;75.7;99500;;;;
2022/10/19 09:42:04;;;;;;;;;;;;;;;;;;;;;
2022/10/19 09:52:04;;;;;;;6.7;12;;;;;;;12.8;74.4;99500;;;;
2022/10/19 10:03:04;;;;;;;6.7;12;;;;;;;13.4;72.5;99510;;;;
2022/10/19 10:14:05;;;;;;;6.7;12;;;;;;;13.9;71;99490;;;;
2022/10/19 10:24:04;;;;;;;5.6;9.4;;;;;;;13.5;70.8;99490;;;;
2022/10/19 10:35:04;;;;;;;5.6;9.4;;;;;;;13.2;71.1;99490;;;;
2022/10/19 10:45:03;;;;;;;5.6;9.4;;;;;;;13.2;69.6;99500;;;;
2022/10/19 10:56:04;;;;;;;4.3;9.4;;;;;;;13.5;69.6;99500;;;;
2022/10/19 11:06:03;;;;;;;4.3;9.4;;;;;;;13.6;67.8;99490;;;;
2022/10/19 11:16:03;;;;;;;4.3;9.4;;;;;;;13.7;66.8;99480;;;;
2022/10/19 11:27:03;;;;;;;4;13.4;;;;;;;13.9;65.1;99480;;;;
2022/10/19 11:37:04;;;;;;;4;13.4;;;;;;;13.6;62.3;99490;;;;
2022/10/19 11:47:03;;;;;;;4;13.4;;;;;;;13.5;63.3;99480;;;;
2022/10/19 11:58:04;;;;;;;2.8;6.6;;;;;;;13.6;63.3;99490;;;;
2022/10/19 12:09:03;;;;;;;2.8;6.6;;;;;;;13.6;63.8;99480;;;;
2022/10/19 12:20:03;;;;;;;2.8;6.6;;;;;;;13.6;63.3;99460;;;;
2022/10/19 12:30:04;;;;;;;2.9;6;;;;;;;13.5;63.1;99440;;;;
2022/10/19 12:41:04;;;;;;;2.9;6;;;;;;;13.2;64;99460;;;;
2022/10/19 12:51:03;;;;;;;2.6;6.8;;;;;;;13;65.1;99460;;;;
2022/10/19 13:01:03;;;;;;;2.6;6.8;;;;;;;12.7;65.7;99470;;;;
2022/10/19 13:11:03;;;;;;;2.6;6.8;;;;;;;12.6;65.9;99470;;;;
2022/10/19 13:22:03;;;;;;;4;9.5;;;;;;;12.6;67;99470;;;;
2022/10/19 13:33:03;;;;;;;4;9.5;;;;;;;12.5;68.3;99470;;;;
2022/10/19 13:43:03;;;;;;;4;9.5;;;;;;;12.5;68.8;99480;;;;
2022/10/19 13:53:03;;;;;;;3.5;7.6;;;;;;;12.4;69.4;99480;;;;
2022/10/19 14:04:03;;;;;;;3.5;7.6;;;;;;;12.5;69;99470;;;;
2022/10/19 14:14:03;;;;;;;3.5;7.6;;;;;;;12.6;69.4;99480;;;;
2022/10/19 14:25:03;;;;;;;4.7;11;;;;;;;12.2;70.3;99470;;;;
2022/10/19 14:35:03;;;;;;;4.7;11;;;;;;;12.2;71;99470;;;;
2022/10/19 14:45:03;;;;;;;4.7;11;;;;;;;12.2;71;99470;;;;
2022/10/19 14:56:03;;;;;;;5.1;10;;;;;;;12.2;71.1;99470;;;;
2022/10/19 15:07:03;;;;;;;5.1;10;;;;;;;12;71.3;99470;;;;
2022/10/19 15:18:03;;;;;;;5.1;10;;;;;;;11.9;71.8;99470;;;;
2022/10/19 15:28:03;;;;;;;4.8;9.6;;;;;;;11.9;72.4;99480;;;;
2022/10/19 15:39:05;;;;;;;4.8;9.6;;;;;;;11.6;74.9;99490;;;;
2022/10/19 15:50:04;;;;;;;4.8;9.6;;;;;;;11.4;75.9;99490;;;;
2022/10/19 16:00:03;;;;;;;5.2;10.8;;;;;;;11.4;75.9;99510;;;;
2022/10/19 16:11:03;;;;;;;5.2;10.8;;;;;;;11.3;76;99520;;;;
2022/10/19 16:21:03;;;;;;;7.2;12.6;;;;;;;11.2;76.5;99520;;;;
2022/10/19 16:32:03;;;;;;;7.2;12.6;;;;;;;11.1;77.1;99550;;;;
2022/10/19 16:43:03;;;;;;;7.2;12.6;;;;;;;11.2;77.3;99550;;;;
2022/10/19 16:54:03;;;;;;;8.3;14;;;;;;;11.2;76.7;99560;;;;
2022/10/19 17:04:03;;;;;;;8.3;14;;;;;;;11.2;75.9;99570;;;;
2022/10/19 17:14:03;;;;;;;8.3;14;;;;;;;11.1;76.2;99580;;;;
2022/10/19 17:24:04;;;;;;;5.5;10.2;;;;;;;11;76.4;99580;;;;
2022/10/19 17:34:03;;;;;;;5.5;10.2;;;;;;;11;76.6;99580;;;;
2022/10/19 17:45:03;;;;;;;5.5;10.2;;;;;;;11;76.8;99590;;;;
2022/10/19 17:56:03;;;;;;;6.1;9.9;;;;;;;11;77.6;99610;;;;
2022/10/19 18:07:03;;;;;;;6.1;9.9;;;;;;;10.9;79.7;99640;;;;
2022/10/19 18:17:03;;;;;;;6.1;9.9;;;;;;;10.6;82.4;99640;;;;
2022/10/19 18:28:04;;;;;;;5.3;9.2;;;;;;;10.5;83;99640;;;;
2022/10/19 18:39:03;;;;;;;5.3;9.2;;;;;;;10.4;83.4;99650;;;;
2022/10/19 18:50:03;;;;;;;5.3;9.2;;;;;;;10.3;83.9;99660;;;;
2022/10/19 19:01:03;;;;;;;19.2;27;;;;;;;10.2;83.9;99670;;;;
2022/10/19 19:12:03;;;;;;;19.2;27;;;;;;;10.1;84.3;99670;;;;
2022/10/19 19:22:04;;;;;;;10.5;16.2;;;;;;;9.8;84.1;99690;;;;
2022/10/19 19:33:03;;;;;;;10.5;16.2;;;;;;;9.4;84.6;99690;;;;
2022/10/19 19:43:03;;;;;;;10.5;16.2;;;;;;;9.2;84.9;99700;;;;
2022/10/19 19:54:03;;;;;;;9.8;13.7;;;;;;;9;85;99710;;;;
2022/10/19 20:05:03;;;;;;;9.8;13.7;;;;;;;8.8;85.5;99710;;;;
2022/10/19 20:15:03;;;;;;;9.8;13.7;;;;;;;8.7;85.2;99720;;;;
2022/10/19 20:26:03;;;;;;;9.7;14.9;;;;;;;8.4;84.8;99730;;;;
2022/10/19 20:37:03;;;;;;;9.7;14.9;;;;;;;8.2;84.5;99730;;;;
2022/10/19 20:47:03;;;;;;;9.7;14.9;;;;;;;7.9;84.9;99740;;;;
2022/10/19 20:58:03;;;;;;;8.8;16.3;;;;;;;7.7;87.6;99740;;;;
2022/10/19 21:08:03;;;;;;;8.8;16.3;;;;;;;7.7;88.2;99740;;;;
2022/10/19 21:18:03;;;;;;;8.8;16.3;;;;;;;7.6;88.5;99760;;;;
2022/10/19 21:29:03;;;;;;;9.7;15.8;;;;;;;7.5;87.9;99760;;;;
2022/10/19 21:40:03;;;;;;;9.7;15.8;;;;;;;7.3;87.2;99750;;;;
2022/10/19 21:50:03;;;;;;;8.8;15;;;;;;;7.4;87.4;99750;;;;
2022/10/19 22:01:03;;;;;;;8.8;15;;;;;;;7.7;87.8;99750;;;;
2022/10/19 22:11:03;;;;;;;8.8;15;;;;;;;7.7;88;99750;;;;
2022/10/19 22:21:03;;;;;;;12.6;22.7;;;;;;;7.7;87.8;99760;;;;
2022/10/19 22:32:03;;;;;;;12.6;22.7;;;;;;;7.7;87.4;99760;;;;
2022/10/19 22:42:03;;;;;;;12.6;22.7;;;;;;;7.7;87.2;99760;;;;
2022/10/19 22:53:03;;;;;;;10.1;14.3;;;;;;;7.7;87.3;99760;;;;
2022/10/19 23:03:03;;;;;;;10.1;14.3;;;;;;;7.6;87.1;99760;;;;
2022/10/19 23:14:03;;;;;;;10.1;14.3;;;;;;;7.4;86.6;99760;;;;
2022/10/19 23:24:03;;;;;;;9.7;15.3;;;;;;;7.3;86.5;99770;;;;
2022/10/19 23:35:03;;;;;;;9.7;15.3;;;;;;;7.1;86.4;99780;;;;
2022/10/19 23:46:03;;;;;;;9.7;15.3;;;;;;;7.2;86.9;99800;;;;
2022/10/19 23:56:03;;;;;;;8.6;14.2;;;;;;;7.3;86.9;99800;;;;
